Time;durP1;ratioP1;P1;durP2;ratioP2;P2;SDS_P1;SDS_P2;PMS_P1;PMS_P2;Temp;Humidity;BMP_temperature;BMP_pressure;BME280_temperature;BME280_humidity;BME280_pressure;Samples;Min_cycle;Max_cycle;Signal;HPM_P1;HPM_P2
2022/07/07 00:00:14;;;;;;;6.25;5.30;;;;;;;;;;2074041;28;20224;-54
2022/07/07 00:01:15;;;;;;;5.78;5.22;;;;;;;;;;2073746;28;20169;-57
2022/07/07 00:02:15;;;;;;;6.45;5.85;;;;;;;;;;2074366;28;20185;-52
2022/07/07 00:03:15;;;;;;;7.03;5.43;;;;;;;;;;2074659;28;20161;-54
2022/07/07 00:04:16;;;;;;;5.70;4.95;;;;;;;;;;2073681;28;20315;-53
2022/07/07 00:05:16;;;;;;;7.47;5.65;;;;;;;;;;2074635;28;20189;-52
2022/07/07 00:06:17;;;;;;;6.18;5.53;;;;;;;;;;2074606;28;20189;-52
2022/07/07 00:07:17;;;;;;;7.75;5.65;;;;;;;;;;2074215;28;20572;-57
2022/07/07 00:08:18;;;;;;;6.22;5.47;;;;;;;;;;2074205;28;20215;-53
2022/07/07 00:09:18;;;;;;;7.57;5.82;;;;;;;;;;2074834;28;20192;-53
2022/07/07 00:10:18;;;;;;;6.22;5.63;;;;;;;;;;2074470;28;20165;-55
2022/07/07 00:11:19;;;;;;;6.15;5.60;;;;;;;;;;2074660;28;20169;-52
2022/07/07 00:12:19;;;;;;;6.97;5.30;;;;;;;;;;2074924;28;20583;-53
2022/07/07 00:13:20;;;;;;;7.50;5.35;;;;;;;;;;2074678;28;20672;-53
2022/07/07 00:14:20;;;;;;;8.60;5.88;;;;;;;;;;2073928;28;20172;-52
2022/07/07 00:15:21;;;;;;;6.70;5.68;;;;;;;;;;2074323;28;20650;-51
2022/07/07 00:16:22;;;;;;;6.32;5.72;;;;;;;;;;2074633;28;20540;-54
2022/07/07 00:17:22;;;;;;;7.50;6.03;;;;;;;;;;2074521;28;20196;-55
2022/07/07 00:18:22;;;;;;;6.60;5.97;;;;;;;;;;2074117;28;20164;-52
2022/07/07 00:19:23;;;;;;;6.28;5.68;;;;;;;;;;2073648;28;20239;-57
2022/07/07 00:20:23;;;;;;;7.38;5.63;;;;;;;;;;2074451;28;20173;-54
2022/07/07 00:21:23;;;;;;;6.35;5.85;;;;;;;;;;2074476;28;20173;-53
2022/07/07 00:22:24;;;;;;;7.97;5.50;;;;;;;;;;2074583;28;20172;-56
2022/07/07 00:23:24;;;;;;;6.63;6.13;;;;;;;;;;2074128;28;20642;-55
2022/07/07 00:24:24;;;;;;;6.28;5.80;;;;;;;;;;2073571;28;20184;-55
2022/07/07 00:25:25;;;;;;;6.13;5.45;;;;;;;;;;2074375;28;20184;-54
2022/07/07 00:26:25;;;;;;;8.43;5.88;;;;;;;;;;2074659;28;20176;-51
2022/07/07 00:27:25;;;;;;;6.57;5.97;;;;;;;;;;2077405;28;20552;-53
2022/07/07 00:28:26;;;;;;;7.65;5.97;;;;;;;;;;2080454;28;20172;-55
2022/07/07 00:29:27;;;;;;;7.75;5.90;;;;;;;;;;2074302;28;20200;-52
2022/07/07 00:30:27;;;;;;;6.47;5.93;;;;;;;;;;2074337;28;20180;-56
2022/07/07 00:31:27;;;;;;;6.32;5.72;;;;;;;;;;2074564;28;20176;-54
2022/07/07 00:32:28;;;;;;;6.63;5.57;;;;;;;;;;2073830;28;20216;-56
2022/07/07 00:33:28;;;;;;;6.28;5.75;;;;;;;;;;2073823;28;20239;-54
2022/07/07 00:34:28;;;;;;;5.53;5.13;;;;;;;;;;2073491;28;20275;-52
2022/07/07 00:35:29;;;;;;;6.15;5.55;;;;;;;;;;2074314;28;20172;-57
2022/07/07 00:36:29;;;;;;;6.93;5.55;;;;;;;;;;2074347;28;20239;-53
2022/07/07 00:37:29;;;;;;;7.00;5.88;;;;;;;;;;2074123;28;20209;-52
2022/07/07 00:38:30;;;;;;;6.20;5.70;;;;;;;;;;2073584;28;20179;-53
2022/07/07 00:39:30;;;;;;;6.88;6.03;;;;;;;;;;2074483;28;20273;-50
2022/07/07 00:40:31;;;;;;;6.28;5.57;;;;;;;;;;2074166;28;20200;-51
2022/07/07 00:41:32;;;;;;;8.05;6.50;;;;;;;;;;2074566;28;20204;-55
2022/07/07 00:42:33;;;;;;;6.32;5.78;;;;;;;;;;2074392;28;20260;-54
2022/07/07 00:43:36;;;;;;;7.05;6.35;;;;;;;;;;2074294;28;20203;-54
2022/07/07 00:44:37;;;;;;;6.72;6.10;;;;;;;;;;2073354;28;20543;-55
2022/07/07 00:45:37;;;;;;;9.43;6.22;;;;;;;;;;2073953;28;20181;-52
2022/07/07 00:46:45;;;;;;;6.88;6.18;;;;;;;;;;2074005;28;20171;-53
2022/07/07 00:47:45;;;;;;;7.43;6.75;;;;;;;;;;2074506;28;20205;-53
2022/07/07 00:48:46;;;;;;;7.68;6.88;;;;;;;;;;2077220;28;20620;-56
2022/07/07 00:49:46;;;;;;;7.10;6.50;;;;;;;;;;2073900;28;20164;-57
2022/07/07 00:50:47;;;;;;;9.70;7.35;;;;;;;;;;2073925;28;20180;-55
2022/07/07 00:51:47;;;;;;;9.88;7.32;;;;;;;;;;2074371;28;20676;-53
2022/07/07 00:52:48;;;;;;;10.27;9.18;;;;;;;;;;2073893;28;20223;-58
2022/07/07 00:53:48;;;;;;;10.05;9.00;;;;;;;;;;2073808;28;20186;-54
2022/07/07 00:54:52;;;;;;;11.30;10.13;;;;;;;;;;2072994;28;20700;-54
2022/07/07 00:55:53;;;;;;;9.75;8.75;;;;;;;;;;2074030;28;20191;-54
2022/07/07 00:56:53;;;;;;;12.52;9.18;;;;;;;;;;2072788;28;20239;-54
2022/07/07 00:57:53;;;;;;;11.07;9.95;;;;;;;;;;2074106;28;20551;-53
2022/07/07 00:58:54;;;;;;;12.27;10.07;;;;;;;;;;2073834;28;20653;-55
2022/07/07 00:59:55;;;;;;;12.55;9.60;;;;;;;;;;2074062;28;20184;-53
2022/07/07 01:00:55;;;;;;;12.10;10.15;;;;;;;;;;2073875;28;20173;-55
2022/07/07 01:01:56;;;;;;;12.13;10.15;;;;;;;;;;2074023;28;20197;-54
2022/07/07 01:02:56;;;;;;;11.02;9.93;;;;;;;;;;2073315;28;20188;-55
2022/07/07 01:03:57;;;;;;;13.25;10.10;;;;;;;;;;2073019;28;20204;-57
2022/07/07 01:04:58;;;;;;;13.50;11.00;;;;;;;;;;2073545;28;20176;-53
2022/07/07 01:05:59;;;;;;;11.50;10.40;;;;;;;;;;2073778;28;20600;-55
2022/07/07 01:07:00;;;;;;;12.32;11.05;;;;;;;;;;2073759;28;20177;-55
2022/07/07 01:08:02;;;;;;;11.50;10.27;;;;;;;;;;2073935;28;20189;-55
2022/07/07 01:09:03;;;;;;;11.25;10.15;;;;;;;;;;2073780;28;20303;-54
2022/07/07 01:10:05;;;;;;;15.13;11.48;;;;;;;;;;2074158;28;20191;-54
2022/07/07 01:11:05;;;;;;;12.57;10.32;;;;;;;;;;2073778;28;20247;-54
2022/07/07 01:12:05;;;;;;;12.48;10.82;;;;;;;;;;2073979;28;20606;-53
2022/07/07 01:13:06;;;;;;;10.75;9.70;;;;;;;;;;2073174;28;20207;-56
2022/07/07 01:14:06;;;;;;;11.23;10.02;;;;;;;;;;2072510;28;20261;-57
2022/07/07 01:15:08;;;;;;;11.48;10.32;;;;;;;;;;2073890;28;20176;-57
2022/07/07 01:16:09;;;;;;;10.98;9.98;;;;;;;;;;2073937;28;20171;-54
2022/07/07 01:17:09;;;;;;;13.35;10.05;;;;;;;;;;2073741;28;20547;-55
2022/07/07 01:18:09;;;;;;;13.10;11.32;;;;;;;;;;2073929;28;20184;-55
2022/07/07 01:19:10;;;;;;;13.75;10.93;;;;;;;;;;2073334;28;20212;-52
2022/07/07 01:20:13;;;;;;;11.48;10.23;;;;;;;;;;2073949;28;20169;-52
2022/07/07 01:21:16;;;;;;;13.73;11.02;;;;;;;;;;2073816;28;20656;-56
2022/07/07 01:22:17;;;;;;;11.00;9.93;;;;;;;;;;2073810;28;20303;-55
2022/07/07 01:23:17;;;;;;;11.00;9.98;;;;;;;;;;2073885;28;20161;-57
2022/07/07 01:24:18;;;;;;;11.85;10.45;;;;;;;;;;2072307;28;20211;-54
2022/07/07 01:25:18;;;;;;;11.43;10.25;;;;;;;;;;2073224;28;20275;-51
2022/07/07 01:26:19;;;;;;;10.73;9.70;;;;;;;;;;2073923;28;20240;-55
2022/07/07 01:27:20;;;;;;;10.52;9.57;;;;;;;;;;2076083;28;20168;-53
2022/07/07 01:28:20;;;;;;;14.68;10.63;;;;;;;;;;2080707;28;20172;-55
2022/07/07 01:29:20;;;;;;;11.60;9.82;;;;;;;;;;2073360;28;20188;-56
2022/07/07 01:30:21;;;;;;;11.23;10.20;;;;;;;;;;2073332;28;20699;-51
2022/07/07 01:31:21;;;;;;;11.25;10.00;;;;;;;;;;2073210;28;20200;-52
2022/07/07 01:32:22;;;;;;;11.65;10.55;;;;;;;;;;2073836;28;20200;-50
2022/07/07 01:33:22;;;;;;;11.80;10.60;;;;;;;;;;2074006;28;20166;-55
2022/07/07 01:34:22;;;;;;;11.70;10.57;;;;;;;;;;2072610;28;20181;-54
2022/07/07 01:35:23;;;;;;;11.88;10.68;;;;;;;;;;2073915;28;20244;-55
2022/07/07 01:36:23;;;;;;;12.48;11.05;;;;;;;;;;2073755;28;20638;-51
2022/07/07 01:37:24;;;;;;;12.27;11.05;;;;;;;;;;2073154;28;20176;-52
2022/07/07 01:38:25;;;;;;;13.48;11.07;;;;;;;;;;2072934;28;20215;-56
2022/07/07 01:39:25;;;;;;;13.23;10.63;;;;;;;;;;2073413;28;20201;-58
2022/07/07 01:40:25;;;;;;;14.10;11.38;;;;;;;;;;2073650;28;20192;-57
2022/07/07 01:41:26;;;;;;;12.00;10.90;;;;;;;;;;2073711;28;20650;-53
2022/07/07 01:42:26;;;;;;;12.30;11.00;;;;;;;;;;2073774;28;20216;-54
2022/07/07 01:43:26;;;;;;;13.48;10.90;;;;;;;;;;2073775;28;20173;-53
2022/07/07 01:44:29;;;;;;;12.02;10.52;;;;;;;;;;2072617;28;20173;-59
2022/07/07 01:45:29;;;;;;;12.60;10.25;;;;;;;;;;2073757;28;20252;-55
2022/07/07 01:46:31;;;;;;;11.63;10.38;;;;;;;;;;2073475;28;20165;-54
2022/07/07 01:47:31;;;;;;;11.90;10.80;;;;;;;;;;2073852;28;20183;-55
2022/07/07 01:48:32;;;;;;;14.43;10.80;;;;;;;;;;2073645;28;20215;-52
2022/07/07 01:49:33;;;;;;;11.88;10.65;;;;;;;;;;2073163;28;20201;-57
2022/07/07 01:50:33;;;;;;;12.60;10.75;;;;;;;;;;2072865;28;20180;-54
2022/07/07 01:51:33;;;;;;;11.82;10.45;;;;;;;;;;2073694;28;20181;-54
2022/07/07 01:52:35;;;;;;;12.73;11.27;;;;;;;;;;2072803;28;20275;-56
2022/07/07 01:53:35;;;;;;;12.20;10.90;;;;;;;;;;2071217;28;20180;-51
2022/07/07 01:54:36;;;;;;;12.02;10.77;;;;;;;;;;2072058;28;21128;-56
2022/07/07 01:55:36;;;;;;;12.13;10.98;;;;;;;;;;2073154;28;20195;-53
2022/07/07 01:56:37;;;;;;;11.98;10.68;;;;;;;;;;2072053;28;20199;-56
2022/07/07 01:57:37;;;;;;;12.38;10.27;;;;;;;;;;2073534;28;20243;-52
2022/07/07 01:58:37;;;;;;;12.27;10.55;;;;;;;;;;2073421;28;20204;-54
2022/07/07 01:59:38;;;;;;;12.73;11.35;;;;;;;;;;2072586;28;20168;-53
2022/07/07 02:00:39;;;;;;;11.57;10.40;;;;;;;;;;2073029;28;20207;-54
2022/07/07 02:01:39;;;;;;;12.43;10.38;;;;;;;;;;2073373;28;20206;-56
2022/07/07 02:02:39;;;;;;;13.40;11.27;;;;;;;;;;2073573;28;20157;-54
2022/07/07 02:03:40;;;;;;;11.57;10.52;;;;;;;;;;2073609;28;20330;-58
2022/07/07 02:04:40;;;;;;;14.32;11.13;;;;;;;;;;2072788;28;20173;-57
2022/07/07 02:05:40;;;;;;;11.88;10.60;;;;;;;;;;2073594;28;20161;-56
2022/07/07 02:06:41;;;;;;;11.95;10.60;;;;;;;;;;2073311;28;20176;-55
2022/07/07 02:07:41;;;;;;;13.60;10.48;;;;;;;;;;2073404;28;20165;-52
2022/07/07 02:08:42;;;;;;;12.15;10.30;;;;;;;;;;2073386;28;20253;-56
2022/07/07 02:09:42;;;;;;;13.02;10.73;;;;;;;;;;2073614;28;20165;-55
2022/07/07 02:12:02;;;;;;;12.25;11.05;;;;;;;;;;2073353;28;20168;-53
2022/07/07 02:13:04;;;;;;;11.05;9.70;;;;;;;;;;2073698;28;20176;-53
2022/07/07 02:14:04;;;;;;;12.10;10.80;;;;;;;;;;2072819;28;20177;-53
2022/07/07 02:15:06;;;;;;;13.07;9.65;;;;;;;;;;2073556;28;20177;-53
2022/07/07 02:16:06;;;;;;;12.32;10.10;;;;;;;;;;2072958;28;20435;-53
2022/07/07 02:17:06;;;;;;;11.88;10.75;;;;;;;;;;2072726;28;20184;-54
2022/07/07 02:18:07;;;;;;;12.15;10.95;;;;;;;;;;2073368;28;20222;-53
2022/07/07 02:19:07;;;;;;;11.45;10.27;;;;;;;;;;2071000;28;20259;-56
2022/07/07 02:20:08;;;;;;;12.00;10.75;;;;;;;;;;2079471;23;20290;-55
2022/07/07 02:21:09;;;;;;;11.50;10.43;;;;;;;;;;2071632;28;20181;-55
2022/07/07 02:22:09;;;;;;;11.50;10.38;;;;;;;;;;2072502;28;20192;-53
2022/07/07 02:23:10;;;;;;;11.57;10.15;;;;;;;;;;2072858;28;20687;-55
2022/07/07 02:24:10;;;;;;;11.50;10.35;;;;;;;;;;2071874;28;20176;-54
2022/07/07 02:25:10;;;;;;;12.27;10.93;;;;;;;;;;2072430;28;20168;-51
2022/07/07 02:26:11;;;;;;;12.02;10.77;;;;;;;;;;2073017;28;20180;-57
2022/07/07 02:27:13;;;;;;;11.32;9.90;;;;;;;;;;2073655;28;20176;-59
2022/07/07 02:28:13;;;;;;;11.68;10.43;;;;;;;;;;2073192;28;20223;-55
2022/07/07 02:29:13;;;;;;;10.80;9.80;;;;;;;;;;2072878;28;20165;-56
2022/07/07 02:30:14;;;;;;;14.38;10.85;;;;;;;;;;2073060;28;20670;-56
2022/07/07 02:31:15;;;;;;;11.50;10.40;;;;;;;;;;2073080;28;20169;-53
2022/07/07 02:32:15;;;;;;;10.63;9.63;;;;;;;;;;2072784;28;20181;-54
2022/07/07 02:33:15;;;;;;;11.60;10.50;;;;;;;;;;2073360;28;20184;-54
2022/07/07 02:34:16;;;;;;;11.13;10.02;;;;;;;;;;2072549;28;20165;-58
2022/07/07 02:35:16;;;;;;;11.85;10.65;;;;;;;;;;2072845;28;20196;-54
2022/07/07 02:36:19;;;;;;;12.88;11.57;;;;;;;;;;2073093;28;20255;-56
2022/07/07 02:37:19;;;;;;;11.68;10.57;;;;;;;;;;2073045;28;20192;-56
2022/07/07 02:38:20;;;;;;;11.82;10.43;;;;;;;;;;2072762;28;20173;-54
2022/07/07 02:39:21;;;;;;;11.70;10.50;;;;;;;;;;2072764;28;20212;-54
2022/07/07 02:40:21;;;;;;;11.80;10.20;;;;;;;;;;2073147;28;20192;-58
2022/07/07 02:41:21;;;;;;;10.98;9.98;;;;;;;;;;2073153;28;20177;-55
2022/07/07 02:42:22;;;;;;;12.60;11.30;;;;;;;;;;2072619;28;20219;-58
2022/07/07 02:43:23;;;;;;;11.30;9.95;;;;;;;;;;2072613;28;20161;-55
2022/07/07 02:44:23;;;;;;;11.98;10.45;;;;;;;;;;2071711;28;20165;-57
2022/07/07 02:45:23;;;;;;;12.27;10.98;;;;;;;;;;2072732;28;20173;-52
2022/07/07 02:46:24;;;;;;;10.20;9.30;;;;;;;;;;2073182;28;20160;-52
2022/07/07 02:47:24;;;;;;;12.18;10.98;;;;;;;;;;2073381;28;20260;-51
2022/07/07 02:48:25;;;;;;;12.88;10.40;;;;;;;;;;2073451;28;20215;-53
2022/07/07 02:49:25;;;;;;;13.35;11.52;;;;;;;;;;2073182;28;20171;-54
2022/07/07 02:50:26;;;;;;;13.10;10.50;;;;;;;;;;2073242;28;20228;-54
2022/07/07 02:51:26;;;;;;;17.42;12.68;;;;;;;;;;2073253;28;20208;-52
2022/07/07 02:52:26;;;;;;;16.42;11.95;;;;;;;;;;2073247;28;20173;-51
2022/07/07 02:53:27;;;;;;;15.52;13.73;;;;;;;;;;2073212;28;20633;-51
2022/07/07 02:54:27;;;;;;;14.18;12.68;;;;;;;;;;2072940;28;20251;-53
2022/07/07 02:55:27;;;;;;;19.00;14.50;;;;;;;;;;2072787;28;20223;-52
2022/07/07 02:56:28;;;;;;;17.23;14.52;;;;;;;;;;2073189;28;20165;-53
2022/07/07 02:57:28;;;;;;;16.80;14.82;;;;;;;;;;2073152;28;20806;-52
2022/07/07 02:58:31;;;;;;;20.85;15.35;;;;;;;;;;2073340;28;20169;-52
2022/07/07 02:59:32;;;;;;;22.10;16.55;;;;;;;;;;2073017;28;20179;-55
2022/07/07 03:00:35;;;;;;;17.83;15.93;;;;;;;;;;2073187;28;20201;-51
2022/07/07 03:01:35;;;;;;;19.90;16.45;;;;;;;;;;2072661;28;20203;-54
2022/07/07 03:02:36;;;;;;;17.73;15.20;;;;;;;;;;2073251;28;20173;-52
2022/07/07 03:03:36;;;;;;;20.90;16.48;;;;;;;;;;2073133;28;20192;-51
2022/07/07 03:04:36;;;;;;;21.63;17.77;;;;;;;;;;2072061;28;20173;-49
2022/07/07 03:05:37;;;;;;;21.05;17.55;;;;;;;;;;2073171;28;20177;-51
2022/07/07 03:06:37;;;;;;;21.52;17.52;;;;;;;;;;2073245;28;20173;-50
2022/07/07 03:07:38;;;;;;;24.67;18.92;;;;;;;;;;2073180;28;20184;-50
2022/07/07 03:08:38;;;;;;;26.00;19.17;;;;;;;;;;2073593;28;20169;-54
2022/07/07 03:09:39;;;;;;;21.48;17.92;;;;;;;;;;2073310;28;20188;-52
2022/07/07 03:10:39;;;;;;;26.52;19.58;;;;;;;;;;2073240;28;20665;-52
2022/07/07 03:11:39;;;;;;;24.70;20.55;;;;;;;;;;2073268;28;20189;-57
2022/07/07 03:12:40;;;;;;;25.75;20.15;;;;;;;;;;2073259;28;20538;-56
2022/07/07 03:13:41;;;;;;;22.63;19.13;;;;;;;;;;2073129;28;20168;-58
2022/07/07 03:14:41;;;;;;;28.33;20.55;;;;;;;;;;2071934;28;20200;-56
2022/07/07 03:15:41;;;;;;;27.13;21.02;;;;;;;;;;2073203;28;20172;-54
2022/07/07 03:16:41;;;;;;;23.63;20.58;;;;;;;;;;2073120;28;20557;-55
2022/07/07 03:17:45;;;;;;;27.92;20.48;;;;;;;;;;2073223;28;20222;-56
2022/07/07 03:18:46;;;;;;;29.10;21.75;;;;;;;;;;2073183;28;20164;-54
2022/07/07 03:19:46;;;;;;;26.38;21.70;;;;;;;;;;2072407;28;20189;-54
2022/07/07 03:20:47;;;;;;;24.25;21.42;;;;;;;;;;2072574;28;20208;-50
2022/07/07 03:21:47;;;;;;;26.20;21.20;;;;;;;;;;2073357;28;20220;-53
2022/07/07 03:22:48;;;;;;;30.67;22.05;;;;;;;;;;2073181;28;20168;-57
2022/07/07 03:23:48;;;;;;;26.63;20.63;;;;;;;;;;2073267;28;20166;-50
2022/07/07 03:24:48;;;;;;;26.98;21.08;;;;;;;;;;2071534;28;20550;-51
2022/07/07 03:25:48;;;;;;;24.70;20.80;;;;;;;;;;2073276;28;20161;-50
2022/07/07 03:26:49;;;;;;;27.80;21.13;;;;;;;;;;2072479;28;20185;-51
2022/07/07 03:27:49;;;;;;;24.73;20.45;;;;;;;;;;2072727;28;20169;-54
2022/07/07 03:28:49;;;;;;;26.33;20.95;;;;;;;;;;2073771;28;20671;-54
2022/07/07 03:29:50;;;;;;;27.00;21.05;;;;;;;;;;2073005;28;20566;-53
2022/07/07 03:30:50;;;;;;;26.88;20.42;;;;;;;;;;2072523;28;20606;-51
2022/07/07 03:31:51;;;;;;;26.90;21.30;;;;;;;;;;2073151;28;20188;-50
2022/07/07 03:32:51;;;;;;;27.80;20.95;;;;;;;;;;2073115;28;20168;-53
2022/07/07 03:33:51;;;;;;;26.13;21.65;;;;;;;;;;2073536;28;20588;-56
2022/07/07 03:34:52;;;;;;;26.10;20.65;;;;;;;;;;2073221;28;20169;-55
2022/07/07 03:35:52;;;;;;;28.83;21.27;;;;;;;;;;2074318;28;20227;-55
2022/07/07 03:36:52;;;;;;;29.40;21.95;;;;;;;;;;2073737;28;20276;-54
2022/07/07 03:37:53;;;;;;;26.02;20.52;;;;;;;;;;2074600;28;20208;-51
2022/07/07 03:38:53;;;;;;;27.02;20.20;;;;;;;;;;2074522;28;20185;-50
2022/07/07 03:39:53;;;;;;;27.95;21.52;;;;;;;;;;2073957;28;20227;-50
2022/07/07 03:40:54;;;;;;;28.88;22.00;;;;;;;;;;2073254;28;20185;-54
2022/07/07 03:41:54;;;;;;;34.22;22.27;;;;;;;;;;2073162;28;20203;-57
2022/07/07 03:42:54;;;;;;;30.13;22.35;;;;;;;;;;2074148;28;20254;-57
2022/07/07 03:43:55;;;;;;;34.40;20.70;;;;;;;;;;2073196;28;20259;-51
2022/07/07 03:44:55;;;;;;;34.38;22.38;;;;;;;;;;2065276;28;20674;-49
2022/07/07 03:45:55;;;;;;;26.42;21.63;;;;;;;;;;2074416;28;20173;-52
2022/07/07 03:46:56;;;;;;;25.55;20.70;;;;;;;;;;2073744;28;20173;-51
2022/07/07 03:47:56;;;;;;;25.80;21.13;;;;;;;;;;2073656;28;20173;-52
2022/07/07 03:48:56;;;;;;;26.50;21.42;;;;;;;;;;2073567;28;20180;-50
2022/07/07 03:49:56;;;;;;;29.55;22.23;;;;;;;;;;2072644;28;20251;-57
2022/07/07 03:50:57;;;;;;;27.58;21.17;;;;;;;;;;2072736;28;20181;-53
2022/07/07 03:51:57;;;;;;;24.17;19.33;;;;;;;;;;2073238;28;20176;-52
2022/07/07 03:52:59;;;;;;;30.42;23.58;;;;;;;;;;2073253;28;20169;-53
2022/07/07 03:53:59;;;;;;;24.88;21.23;;;;;;;;;;2072374;28;20177;-58
2022/07/07 03:54:59;;;;;;;24.45;20.17;;;;;;;;;;2072745;28;20177;-50
2022/07/07 03:56:00;;;;;;;25.10;20.67;;;;;;;;;;2072884;28;20275;-50
2022/07/07 03:57:00;;;;;;;29.67;21.13;;;;;;;;;;2073272;28;20176;-50
2022/07/07 03:58:01;;;;;;;27.02;20.65;;;;;;;;;;2073951;28;20280;-57
2022/07/07 03:59:01;;;;;;;27.38;21.30;;;;;;;;;;2074810;28;20236;-56
2022/07/07 04:00:02;;;;;;;23.88;21.05;;;;;;;;;;2075106;28;20196;-58
2022/07/07 04:01:08;;;;;;;28.05;20.42;;;;;;;;;;2064915;28;20543;-57
2022/07/07 04:02:09;;;;;;;23.40;19.65;;;;;;;;;;2065740;28;20205;-58
2022/07/07 04:03:10;;;;;;;27.52;20.50;;;;;;;;;;2065684;28;20229;-56
2022/07/07 04:04:11;;;;;;;26.17;19.50;;;;;;;;;;2064517;28;20158;-52
2022/07/07 04:05:11;;;;;;;23.85;20.05;;;;;;;;;;2073080;28;20170;-54
2022/07/07 04:06:11;;;;;;;25.35;19.98;;;;;;;;;;2072954;28;20184;-58
2022/07/07 04:07:12;;;;;;;22.80;19.42;;;;;;;;;;2072786;28;20236;-54
2022/07/07 04:08:12;;;;;;;24.73;20.08;;;;;;;;;;2073049;28;20177;-56
2022/07/07 04:09:12;;;;;;;25.58;19.60;;;;;;;;;;2072278;28;20305;-57
2022/07/07 04:10:13;;;;;;;25.98;19.05;;;;;;;;;;2072474;28;20818;-56
2022/07/07 04:11:13;;;;;;;23.90;19.40;;;;;;;;;;2064430;28;20710;-57
2022/07/07 04:12:13;;;;;;;23.02;18.98;;;;;;;;;;2072312;28;20181;-52
2022/07/07 04:13:14;;;;;;;25.33;19.27;;;;;;;;;;2072616;28;20183;-57
2022/07/07 04:14:14;;;;;;;26.38;19.77;;;;;;;;;;2072867;28;20639;-54
2022/07/07 04:15:14;;;;;;;21.60;18.67;;;;;;;;;;2073752;28;20185;-53
2022/07/07 04:16:15;;;;;;;23.58;19.02;;;;;;;;;;2074001;28;20258;-57
2022/07/07 04:17:15;;;;;;;24.13;19.33;;;;;;;;;;2074434;28;20252;-55
2022/07/07 04:18:16;;;;;;;23.77;19.42;;;;;;;;;;2074365;28;20268;-55
2022/07/07 04:19:16;;;;;;;26.90;19.45;;;;;;;;;;2074386;28;20177;-57
2022/07/07 04:20:16;;;;;;;24.17;18.90;;;;;;;;;;2074244;28;20303;-56
2022/07/07 04:21:16;;;;;;;26.95;18.05;;;;;;;;;;2074341;28;20180;-57
2022/07/07 04:22:17;;;;;;;22.65;19.30;;;;;;;;;;2074543;28;20173;-57
2022/07/07 04:23:17;;;;;;;24.48;19.95;;;;;;;;;;2074373;28;20204;-57
2022/07/07 04:24:18;;;;;;;24.02;20.55;;;;;;;;;;2073325;28;20222;-54
2022/07/07 04:25:18;;;;;;;26.48;20.95;;;;;;;;;;2073886;28;20173;-57
2022/07/07 04:26:19;;;;;;;25.05;21.02;;;;;;;;;;2074215;28;20173;-58
2022/07/07 04:27:19;;;;;;;23.75;20.23;;;;;;;;;;2074374;28;20231;-53
2022/07/07 04:28:19;;;;;;;26.55;19.95;;;;;;;;;;2076508;28;20292;-57
2022/07/07 04:29:20;;;;;;;22.48;19.90;;;;;;;;;;2082522;28;20172;-52
2022/07/07 04:30:21;;;;;;;23.20;20.70;;;;;;;;;;2082547;28;20700;-54
2022/07/07 04:31:21;;;;;;;24.80;20.73;;;;;;;;;;2073863;28;20598;-55
2022/07/07 04:32:21;;;;;;;21.92;18.70;;;;;;;;;;2073833;28;20173;-55
2022/07/07 04:33:22;;;;;;;28.58;20.35;;;;;;;;;;2074199;28;20296;-52
2022/07/07 04:34:22;;;;;;;27.08;21.35;;;;;;;;;;2073181;28;20180;-51
2022/07/07 04:35:23;;;;;;;27.90;21.27;;;;;;;;;;2074279;28;20176;-55
2022/07/07 04:36:23;;;;;;;24.63;19.98;;;;;;;;;;2073037;28;20240;-56
2022/07/07 04:37:23;;;;;;;24.15;17.35;;;;;;;;;;2073694;28;20173;-55
2022/07/07 04:38:24;;;;;;;22.08;18.75;;;;;;;;;;2078352;28;20295;-57
2022/07/07 04:39:24;;;;;;;22.40;16.80;;;;;;;;;;2080920;28;20226;-55
2022/07/07 04:40:25;;;;;;;22.83;20.35;;;;;;;;;;2075140;28;20192;-52
2022/07/07 04:41:25;;;;;;;27.48;22.02;;;;;;;;;;2073709;28;20161;-54
2022/07/07 04:42:25;;;;;;;28.88;21.35;;;;;;;;;;2074281;28;20255;-58
2022/07/07 04:43:26;;;;;;;22.55;17.00;;;;;;;;;;2074387;28;20169;-55
2022/07/07 04:44:26;;;;;;;23.15;18.80;;;;;;;;;;2072827;28;20399;-56
2022/07/07 04:45:26;;;;;;;21.40;18.10;;;;;;;;;;2073732;28;20165;-54
2022/07/07 04:46:27;;;;;;;23.15;17.58;;;;;;;;;;2074439;28;20173;-56
2022/07/07 04:47:27;;;;;;;19.65;16.88;;;;;;;;;;2074627;28;20187;-57
2022/07/07 04:48:27;;;;;;;20.52;17.83;;;;;;;;;;2074400;28;20169;-55
2022/07/07 04:49:28;;;;;;;20.75;18.55;;;;;;;;;;2074340;28;20211;-56
2022/07/07 04:50:28;;;;;;;17.17;14.90;;;;;;;;;;2074070;28;20188;-57
2022/07/07 04:51:29;;;;;;;18.92;14.73;;;;;;;;;;2074266;28;20173;-57
2022/07/07 04:52:29;;;;;;;17.08;14.57;;;;;;;;;;2074153;28;20175;-53
2022/07/07 04:53:29;;;;;;;13.32;11.70;;;;;;;;;;2074266;28;20165;-52
2022/07/07 04:54:30;;;;;;;15.43;12.45;;;;;;;;;;2073337;28;20817;-52
2022/07/07 04:55:30;;;;;;;13.73;12.32;;;;;;;;;;2073536;28;20180;-57
2022/07/07 04:56:30;;;;;;;13.55;12.23;;;;;;;;;;2073565;28;20575;-58
2022/07/07 04:57:31;;;;;;;10.60;9.60;;;;;;;;;;2073019;28;20653;-56
2022/07/07 04:58:31;;;;;;;10.68;9.38;;;;;;;;;;2073475;28;20742;-53
2022/07/07 04:59:31;;;;;;;10.80;9.75;;;;;;;;;;2074036;28;20543;-53
2022/07/07 05:00:32;;;;;;;10.27;9.27;;;;;;;;;;2074041;28;20279;-55
2022/07/07 05:01:32;;;;;;;9.85;8.88;;;;;;;;;;2074285;28;20184;-58
2022/07/07 05:02:32;;;;;;;9.43;8.63;;;;;;;;;;2074242;28;20176;-54
2022/07/07 05:03:33;;;;;;;9.15;8.30;;;;;;;;;;2075151;28;20177;-59
2022/07/07 05:04:33;;;;;;;9.15;8.23;;;;;;;;;;2074776;28;20252;-53
2022/07/07 05:05:34;;;;;;;8.68;7.78;;;;;;;;;;2075157;28;20240;-54
2022/07/07 05:06:34;;;;;;;9.80;8.77;;;;;;;;;;2066616;28;20178;-54
2022/07/07 05:07:34;;;;;;;8.50;7.70;;;;;;;;;;2074788;28;20180;-53
2022/07/07 05:08:35;;;;;;;7.82;7.05;;;;;;;;;;2074912;28;20225;-51
2022/07/07 05:09:35;;;;;;;7.63;6.93;;;;;;;;;;2074765;28;20657;-51
2022/07/07 05:10:35;;;;;;;8.25;7.38;;;;;;;;;;2075477;28;20559;-55
2022/07/07 05:11:36;;;;;;;7.20;6.50;;;;;;;;;;2075289;28;20234;-53
2022/07/07 05:12:36;;;;;;;8.48;7.68;;;;;;;;;;2076562;28;20183;-50
2022/07/07 05:13:37;;;;;;;8.02;7.18;;;;;;;;;;2076907;28;20220;-54
2022/07/07 05:14:37;;;;;;;8.20;7.40;;;;;;;;;;2076222;28;20177;-51
2022/07/07 05:15:37;;;;;;;7.45;6.82;;;;;;;;;;2076373;28;20169;-52
2022/07/07 05:16:38;;;;;;;7.95;7.15;;;;;;;;;;2076534;28;20170;-53
2022/07/07 05:17:38;;;;;;;7.75;6.93;;;;;;;;;;2075780;28;20173;-50
2022/07/07 05:18:38;;;;;;;7.57;6.88;;;;;;;;;;2076327;28;20173;-50
2022/07/07 05:19:39;;;;;;;6.35;5.75;;;;;;;;;;2075900;28;20165;-50
2022/07/07 05:20:40;;;;;;;6.20;5.70;;;;;;;;;;2075438;28;20737;-50
2022/07/07 05:21:40;;;;;;;6.75;6.25;;;;;;;;;;2065850;28;20260;-54
2022/07/07 05:22:40;;;;;;;6.57;5.97;;;;;;;;;;2065898;28;20224;-52
2022/07/07 05:23:41;;;;;;;6.95;6.28;;;;;;;;;;2074539;28;20272;-51
2022/07/07 05:24:41;;;;;;;6.90;6.22;;;;;;;;;;2072688;28;20176;-51
2022/07/07 05:25:41;;;;;;;8.50;7.70;;;;;;;;;;2073802;28;20172;-52
2022/07/07 05:26:42;;;;;;;8.52;7.72;;;;;;;;;;2074740;28;20626;-49
2022/07/07 05:27:44;;;;;;;8.15;7.55;;;;;;;;;;2074571;28;20169;-52
2022/07/07 05:28:44;;;;;;;8.90;7.95;;;;;;;;;;2080196;28;20215;-54
2022/07/07 05:29:45;;;;;;;9.43;6.95;;;;;;;;;;2081724;28;20219;-53
2022/07/07 05:30:45;;;;;;;8.07;7.30;;;;;;;;;;2082370;28;20592;-55
2022/07/07 05:31:45;;;;;;;7.68;6.88;;;;;;;;;;2083202;28;20198;-50
2022/07/07 05:32:46;;;;;;;7.47;6.78;;;;;;;;;;2074148;28;20181;-51
2022/07/07 05:33:46;;;;;;;7.57;6.82;;;;;;;;;;2075369;28;20169;-53
2022/07/07 05:34:47;;;;;;;7.43;6.72;;;;;;;;;;2083470;28;20218;-56
2022/07/07 05:35:47;;;;;;;8.02;7.22;;;;;;;;;;2082618;28;20176;-59
2022/07/07 05:36:47;;;;;;;7.22;6.53;;;;;;;;;;2081674;28;20176;-52
2022/07/07 05:37:48;;;;;;;7.88;7.18;;;;;;;;;;2081222;28;20172;-52
2022/07/07 05:38:49;;;;;;;7.45;6.75;;;;;;;;;;2082267;28;20688;-57
2022/07/07 05:39:51;;;;;;;7.53;6.80;;;;;;;;;;2081880;28;20168;-54
2022/07/07 05:40:51;;;;;;;7.68;6.90;;;;;;;;;;2075820;28;20181;-57
2022/07/07 05:41:51;;;;;;;8.00;7.40;;;;;;;;;;2073016;28;20200;-57
2022/07/07 05:42:51;;;;;;;6.88;6.35;;;;;;;;;;2073334;28;20173;-56
2022/07/07 05:43:52;;;;;;;7.63;6.93;;;;;;;;;;2072683;28;20199;-52
2022/07/07 05:44:52;;;;;;;7.03;6.53;;;;;;;;;;2072732;28;20165;-54
2022/07/07 05:45:53;;;;;;;6.15;5.72;;;;;;;;;;2073800;28;20248;-58
2022/07/07 05:46:53;;;;;;;7.22;6.60;;;;;;;;;;2073833;28;20193;-55
2022/07/07 05:47:53;;;;;;;7.53;6.85;;;;;;;;;;2073897;28;20197;-55
2022/07/07 05:48:54;;;;;;;7.75;6.68;;;;;;;;;;2073111;28;20665;-55
2022/07/07 05:49:54;;;;;;;6.78;6.18;;;;;;;;;;2064906;28;20635;-53
2022/07/07 05:50:54;;;;;;;7.28;6.57;;;;;;;;;;2064891;28;20219;-54
2022/07/07 05:51:55;;;;;;;7.65;7.00;;;;;;;;;;2065690;28;20201;-57
2022/07/07 05:52:55;;;;;;;7.72;7.00;;;;;;;;;;2065523;28;20173;-53
2022/07/07 05:53:55;;;;;;;6.57;6.07;;;;;;;;;;2064760;28;20189;-52
2022/07/07 05:54:56;;;;;;;8.48;7.82;;;;;;;;;;2064502;28;20193;-50
2022/07/07 05:55:57;;;;;;;7.22;6.63;;;;;;;;;;2068274;28;20173;-52
2022/07/07 05:56:58;;;;;;;7.53;6.78;;;;;;;;;;2074589;28;20184;-57